Time;durP1;ratioP1;P1;durP2;ratioP2;P2;SDS_P1;SDS_P2;PMS_P1;PMS_P2;Temp;Humidity;BMP_temperature;BMP_pressure;BME280_temperature;BME280_humidity;BME280_pressure;Samples;Min_cycle;Max_cycle;Signal;HPM_P1;HPM_P2
2023/08/05 00:03:53;;;;;;;10.20;7.10;;;;;;;22.83;80.90;100218.39;681816;1260;138833;-77
2023/08/05 00:18:58;;;;;;;7.30;5.70;;;;;;;22.22;83.53;100209.80;681743;1267;138640;-76
2023/08/05 00:34:02;;;;;;;13.00;7.60;;;;;;;22.45;82.29;100198.81;681806;1260;139747;-77
2023/08/05 00:49:06;;;;;;;13.90;8.00;;;;;;;22.59;82.86;100177.92;681738;1260;140422;-75
2023/08/05 01:04:12;;;;;;;8.20;7.20;;;;;;;22.61;82.89;100167.62;681765;1264;139124;-75
2023/08/05 01:19:22;;;;;;;11.50;7.20;;;;;;;22.36;83.75;100173.67;681364;1267;138234;-73
2023/08/05 01:34:28;;;;;;;10.40;7.30;;;;;;;22.23;84.50;100180.64;681788;1264;138404;-76
2023/08/05 01:49:32;;;;;;;11.30;8.20;;;;;;;22.02;85.94;100163.75;681685;1264;139063;-76
2023/08/05 02:04:37;;;;;;;11.00;7.90;;;;;;;21.82;87.17;100155.83;681559;1264;138341;-77
2023/08/05 02:19:40;;;;;;;12.00;8.20;;;;;;;21.56;88.10;100164.71;681666;1265;138469;-75
2023/08/05 02:34:48;;;;;;;13.20;8.30;;;;;;;21.51;87.65;100163.11;681577;1267;138606;-76
2023/08/05 02:50:07;;;;;;;12.90;8.50;;;;;;;21.62;86.93;100173.31;681439;1266;140348;-76
2023/08/05 03:05:12;;;;;;;11.30;8.70;;;;;;;21.70;87.08;100186.80;681798;1266;138992;-78
2023/08/05 03:20:32;;;;;;;12.70;8.60;;;;;;;21.49;88.77;100201.64;681643;1262;138326;-74
2023/08/05 03:35:44;;;;;;;12.20;7.50;;;;;;;21.75;87.51;100174.38;681682;1267;137894;-77
2023/08/05 03:50:50;;;;;;;;;;;;;;;21.61;87.54;100198.96;681878;1265;140939;-77
2023/08/05 04:05:55;;;;;;;9.70;7.20;;;;;;;21.63;88.08;100212.33;681877;1262;125093;-75
2023/08/05 04:21:00;;;;;;;12.10;8.60;;;;;;;21.95;86.93;100187.20;682007;1265;139467;-75
2023/08/05 04:36:04;;;;;;;11.10;8.90;;;;;;;22.07;87.09;100216.52;681875;1265;137446;-78
2023/08/05 04:51:09;;;;;;;11.80;8.90;;;;;;;22.56;86.70;100210.95;681915;1264;138287;-76
2023/08/05 05:06:17;;;;;;;12.00;8.30;;;;;;;23.05;85.98;100224.40;681537;1265;140844;-75
2023/08/05 05:21:21;;;;;;;12.10;9.20;;;;;;;23.28;86.41;100234.61;681623;1262;140933;-76
2023/08/05 05:36:28;;;;;;;13.20;7.80;;;;;;;23.59;86.40;100228.10;681322;1264;139765;-75
2023/08/05 05:51:34;;;;;;;6.80;5.60;;;;;;;24.17;86.46;100232.54;681896;1263;138538;-77
2023/08/05 06:06:42;;;;;;;14.60;5.20;;;;;;;25.12;84.97;100218.65;681561;1265;138517;-75
2023/08/05 06:21:47;;;;;;;9.50;6.20;;;;;;;25.65;83.45;100212.21;681680;1260;139201;-76
2023/08/05 06:36:51;;;;;;;7.80;4.60;;;;;;;25.97;81.60;100202.91;681625;1262;138282;-75
2023/08/05 06:52:00;;;;;;;5.60;3.70;;;;;;;26.33;79.61;100179.94;681903;1261;138780;-76
2023/08/05 07:07:03;;;;;;;6.00;2.70;;;;;;;26.03;80.63;100175.95;681595;1262;138735;-73
2023/08/05 07:22:07;;;;;;;4.50;2.40;;;;;;;26.61;76.95;100170.95;681185;1262;139140;-75
2023/08/05 07:37:14;;;;;;;5.50;2.50;;;;;;;26.49;76.22;100167.89;681522;1265;147928;-75
2023/08/05 07:52:21;;;;;;;6.60;2.80;;;;;;;26.95;74.16;100162.59;681738;1263;141329;-76
2023/08/05 08:07:28;;;;;;;10.50;2.50;;;;;;;26.84;75.13;100145.97;681581;1266;138346;-77
2023/08/05 08:22:37;;;;;;;8.60;3.80;;;;;;;26.84;74.45;100145.89;681951;1260;139528;-75
2023/08/05 08:37:43;;;;;;;27.80;5.50;;;;;;;26.67;75.26;100157.11;681666;1262;138691;-76
2023/08/05 08:52:51;;;;;;;;;;;;;;;26.87;74.41;100174.09;681387;1261;139433;-75
2023/08/05 09:07:57;;;;;;;4.70;3.40;;;;;;;26.99;75.34;100161.04;681525;1264;125838;-75
2023/08/05 09:23:10;;;;;;;3.40;2.40;;;;;;;26.83;74.91;100153.53;681462;1265;139502;-78
2023/08/05 09:38:17;;;;;;;10.40;4.50;;;;;;;26.83;74.10;100135.95;681396;1262;138913;-77
2023/08/05 09:53:22;;;;;;;3.50;2.90;;;;;;;27.13;73.10;100118.91;681588;1265;138561;-75
2023/08/05 10:08:36;;;;;;;9.00;4.00;;;;;;;27.59;71.19;100114.27;681675;1264;139582;-77
2023/08/05 10:24:01;;;;;;;5.00;3.50;;;;;;;27.51;70.73;100105.56;681774;1265;139256;-76
2023/08/05 10:39:36;;;;;;;6.30;2.80;;;;;;;27.46;71.12;100095.36;681362;1264;139170;-78
2023/08/05 10:54:40;;;;;;;6.20;3.50;;;;;;;27.38;73.31;100089.29;681385;1264;140197;-78
2023/08/05 11:09:46;;;;;;;7.80;4.00;;;;;;;27.11;76.27;100079.95;681697;1264;138253;-78
2023/08/05 11:25:01;;;;;;;5.90;3.60;;;;;;;27.27;77.07;100055.50;681932;1265;140185;-78
2023/08/05 11:40:08;;;;;;;12.80;4.50;;;;;;;27.10;78.81;100051.64;681499;1265;138590;-79
2023/08/05 11:55:17;;;;;;;8.60;5.10;;;;;;;26.99;80.08;100043.91;682130;1265;138700;-76
2023/08/05 12:10:23;;;;;;;6.80;4.30;;;;;;;26.63;81.70;100046.49;681831;1265;137460;-76
2023/08/05 12:25:32;;;;;;;10.00;4.90;;;;;;;26.73;82.43;100045.68;682001;1264;138577;-77
2023/08/05 12:40:40;;;;;;;5.80;4.30;;;;;;;27.15;83.16;100018.58;682005;1266;138916;-78
2023/08/05 12:55:57;;;;;;;8.30;5.00;;;;;;;27.43;82.53;100010.84;682054;1264;138949;-77
2023/08/05 13:11:07;;;;;;;6.50;5.50;;;;;;;27.13;83.30;100012.91;682087;1265;138797;-78
2023/08/05 13:26:15;;;;;;;6.70;4.80;;;;;;;26.87;83.24;100031.17;681713;1265;138618;-80
2023/08/05 13:41:23;;;;;;;9.50;5.50;;;;;;;26.75;82.53;100019.71;681940;1265;138785;-78
2023/08/05 13:56:28;;;;;;;9.60;4.60;;;;;;;26.53;83.98;100006.17;681833;1266;138697;-76
2023/08/05 14:11:34;;;;;;;9.80;6.40;;;;;;;26.44;84.82;100002.01;681647;1264;138985;-77
2023/08/05 14:26:40;;;;;;;26.10;13.00;;;;;;;26.18;84.48;99997.07;681608;1265;139900;-77
2023/08/05 14:41:45;;;;;;;10.30;7.70;;;;;;;26.02;85.81;99982.24;681824;1266;138916;-78
2023/08/05 14:56:56;;;;;;;39.10;25.40;;;;;;;25.63;86.86;99988.70;681658;1269;139163;-79
2023/08/05 15:12:06;;;;;;;14.40;9.40;;;;;;;25.47;87.77;99980.90;681467;1264;139429;-75
2023/08/05 15:27:15;;;;;;;10.40;7.20;;;;;;;25.28;88.61;99972.36;681554;1267;138531;-78
2023/08/05 15:42:23;;;;;;;20.40;12.80;;;;;;;25.42;88.90;99954.86;681671;1269;138466;-78
2023/08/05 15:57:49;;;;;;;10.70;6.80;;;;;;;25.03;90.97;99953.48;681108;1269;139260;-78
2023/08/05 16:12:53;;;;;;;15.50;8.10;;;;;;;24.90;89.07;99951.73;681150;1267;139971;-78
2023/08/05 16:28:00;;;;;;;9.50;5.50;;;;;;;24.78;89.87;99946.95;680648;1268;138802;-78
2023/08/05 16:43:04;;;;;;;9.20;5.30;;;;;;;24.88;89.06;99933.63;680076;1270;141337;-78
2023/08/05 16:58:08;;;;;;;13.30;7.80;;;;;;;24.60;88.73;99922.05;680524;1268;138759;-78
2023/08/05 17:13:11;;;;;;;16.60;7.70;;;;;;;24.53;88.68;99894.33;680530;1276;139265;-78
2023/08/05 17:28:15;;;;;;;17.10;7.40;;;;;;;24.50;88.35;99888.92;680371;1269;141146;-78
2023/08/05 17:43:19;;;;;;;18.20;9.90;;;;;;;24.38;88.90;99877.48;680393;1264;140245;-77
2023/08/05 17:58:23;;;;;;;9.60;6.20;;;;;;;24.23;89.17;99873.20;680659;1267;141932;-77
2023/08/05 18:13:27;;;;;;;11.70;6.90;;;;;;;24.31;88.67;99872.17;680695;1269;140165;-77
2023/08/05 18:28:31;;;;;;;13.50;7.50;;;;;;;24.36;88.31;99868.48;681014;1269;138868;-78
2023/08/05 18:43:35;;;;;;;18.30;10.20;;;;;;;23.89;90.80;99856.11;680835;1271;139937;-78
2023/08/05 18:58:39;;;;;;;16.60;9.80;;;;;;;23.72;91.92;99830.23;680850;1268;138981;-78
2023/08/05 19:13:43;;;;;;;11.40;5.50;;;;;;;23.83;90.28;99821.74;680567;1263;139191;-78
2023/08/05 19:28:49;;;;;;;7.70;4.50;;;;;;;23.49;91.70;99827.23;680143;1268;157446;-78
2023/08/05 19:43:57;;;;;;;6.70;4.90;;;;;;;23.26;92.14;99800.96;680441;1266;139058;-76
2023/08/05 19:59:05;;;;;;;7.50;4.90;;;;;;;23.11;92.94;99784.41;680734;1269;138749;-77
2023/08/05 20:14:14;;;;;;;8.50;4.90;;;;;;;23.26;91.98;99791.04;680370;1275;138547;-76
2023/08/05 20:29:22;;;;;;;7.60;4.70;;;;;;;23.17;91.82;99766.37;680476;1268;138368;-78
2023/08/05 20:44:28;;;;;;;8.30;4.70;;;;;;;23.08;92.15;99740.20;679931;1279;139190;-78
2023/08/05 20:59:34;;;;;;;9.70;4.20;;;;;;;23.22;90.21;99707.59;680410;1269;139016;-76
2023/08/05 21:14:38;;;;;;;8.30;4.30;;;;;;;23.26;89.01;99702.76;680448;1269;138872;-77
2023/08/05 21:29:44;;;;;;;6.90;3.90;;;;;;;23.25;87.97;99679.30;680376;1264;140198;-76
2023/08/05 21:44:47;;;;;;;5.30;3.30;;;;;;;23.07;88.37;99671.30;680283;1279;139006;-78
2023/08/05 21:59:51;;;;;;;5.00;3.20;;;;;;;23.08;88.24;99648.52;680432;1266;138844;-79
2023/08/05 22:14:55;;;;;;;6.20;3.60;;;;;;;23.07;87.98;99625.38;680367;1266;139154;-78
2023/08/05 22:29:59;;;;;;;6.40;3.00;;;;;;;23.05;87.81;99577.52;680527;1268;141368;-77
2023/08/05 22:45:03;;;;;;;5.70;3.80;;;;;;;22.82;89.01;99539.59;680144;1266;138834;-81
2023/08/05 23:00:07;;;;;;;6.60;3.60;;;;;;;23.01;88.73;99531.05;680437;1267;138639;-77
2023/08/05 23:15:10;;;;;;;7.10;3.80;;;;;;;22.80;90.35;99507.83;680210;1266;139298;-79
2023/08/05 23:30:13;;;;;;;4.30;3.70;;;;;;;23.35;88.77;99492.73;680494;1265;139537;-78
2023/08/05 23:45:17;;;;;;;10.10;4.80;;;;;;;23.12;90.11;99485.50;680383;1265;139566;-78
